createdAt,value
2023-03-13T00:01:30.761Z,73.61
2023-03-13T00:03:58.025Z,72.03
2023-03-13T00:06:27.782Z,73.33
2023-03-13T00:08:56.194Z,71.07
2023-03-13T00:11:23.339Z,72.26
2023-03-13T00:13:54.808Z,73.55
2023-03-13T00:16:21.964Z,72.49
2023-03-13T00:18:51.674Z,73.43
2023-03-13T00:21:20.885Z,72.77
2023-03-13T00:23:48.735Z,72.87
2023-03-13T00:26:19.235Z,74.53
2023-03-13T00:28:46.709Z,74.44
2023-03-13T00:31:15.122Z,73.71
2023-03-13T00:33:47.903Z,72.75
2023-03-13T00:36:18.711Z,71.68
2023-03-13T00:38:46.281Z,70.96
2023-03-13T00:41:16.822Z,72.88
2023-03-13T00:43:45.311Z,72.77
2023-03-13T00:46:13.955Z,71.59
2023-03-13T00:48:40.932Z,67.09
2023-03-13T00:51:08.367Z,67.32
2023-03-13T00:53:35.627Z,67.15
2023-03-13T00:56:04.614Z,70.51
2023-03-13T00:58:35.266Z,66.51
2023-03-13T01:01:09.196Z,64.68
2023-03-13T01:03:37.703Z,68.62
2023-03-13T01:06:07.177Z,65.79
2023-03-13T01:08:34.841Z,65.74
2023-03-13T01:11:04.698Z,66.82
2023-03-13T01:13:34.008Z,67.93
2023-03-13T01:16:09.962Z,67.98
2023-03-13T01:18:44.986Z,71.47
2023-03-13T01:21:14.389Z,70.78
2023-03-13T01:23:43.324Z,72.87
2023-03-13T01:26:12.466Z,70.85
2023-03-13T01:28:40.644Z,73.42
2023-03-13T01:31:17.794Z,73.28
2023-03-13T01:33:46.200Z,72.08
2023-03-13T01:36:13.924Z,69.79
2023-03-13T01:38:41.758Z,68.02
2023-03-13T01:41:12.558Z,71.10
2023-03-13T01:43:40.128Z,73.67
2023-03-13T01:46:25.613Z,75.02
2023-03-13T01:49:04.634Z,73.74
2023-03-13T01:51:38.055Z,70.88
2023-03-13T01:54:26.297Z,72.65
2023-03-13T01:57:11.822Z,73.08
2023-03-13T01:59:48.531Z,69.92
2023-03-13T02:02:16.903Z,67.31
2023-03-13T02:04:50.876Z,69.73
2023-03-13T02:07:23.943Z,71.02
2023-03-13T02:09:56.854Z,69.48
2023-03-13T02:12:31.640Z,71.80
2023-03-13T02:15:06.056Z,69.12
2023-03-13T02:17:55.008Z,67.16
2023-03-13T02:20:26.504Z,68.40
2023-03-13T02:23:15.940Z,67.64
2023-03-13T02:25:52.151Z,65.85
2023-03-13T02:28:27.895Z,66.91
2023-03-13T02:30:57.153Z,67.92
2023-03-13T02:33:29.520Z,68.47
2023-03-13T02:35:57.377Z,68.44
2023-03-13T02:38:27.851Z,69.49
2023-03-13T02:40:57.033Z,70.92
2023-03-13T02:43:31.914Z,69.53
2023-03-13T02:46:05.578Z,69.03
2023-03-13T02:48:39.122Z,70.51
2023-03-13T02:51:22.775Z,70.62
2023-03-13T02:53:52.776Z,68.96
2023-03-13T02:56:24.525Z,67.97
2023-03-13T02:58:51.426Z,67.93
2023-03-13T03:01:19.023Z,68.14
2023-03-13T03:03:46.140Z,67.30
2023-03-13T03:06:23.909Z,64.05
2023-03-13T03:08:51.349Z,64.75
2023-03-13T03:11:18.688Z,66.54
2023-03-13T03:13:46.053Z,65.72
2023-03-13T03:16:18.872Z,65.39
2023-03-13T03:18:47.012Z,64.33
2023-03-13T03:21:14.423Z,63.11
2023-03-13T03:23:41.593Z,63.13
2023-03-13T03:26:13.222Z,63.01
2023-03-13T03:29:00.193Z,64.73
2023-03-13T03:31:27.905Z,67.49
2023-03-13T03:33:57.447Z,67.43
2023-03-13T03:36:24.704Z,71.60
2023-03-13T03:38:52.338Z,70.25
2023-03-13T03:41:19.540Z,70.67
2023-03-13T03:43:48.188Z,70.14
2023-03-13T03:46:16.136Z,68.21
2023-03-13T03:48:43.157Z,68.91
2023-03-13T03:51:10.638Z,70.75
2023-03-13T03:53:37.518Z,67.67
2023-03-13T03:56:04.693Z,70.94
2023-03-13T03:58:31.651Z,71.73
2023-03-13T04:00:59.652Z,70.08
2023-03-13T04:03:26.907Z,70.01
2023-03-13T04:05:54.095Z,70.16
2023-03-13T04:08:41.022Z,71.82
2023-03-13T04:11:26.136Z,70.00
2023-03-13T04:13:52.947Z,70.98
2023-03-13T04:16:20.246Z,71.11
2023-03-13T04:18:48.554Z,69.52
2023-03-13T04:21:15.725Z,69.74
2023-03-13T04:23:42.655Z,67.98
2023-03-13T04:26:09.639Z,68.51
2023-03-13T04:28:36.532Z,70.01
2023-03-13T04:31:03.442Z,71.36
2023-03-13T04:33:30.576Z,71.61
2023-03-13T04:35:57.577Z,70.77
2023-03-13T04:38:24.877Z,69.25
2023-03-13T04:41:11.940Z,71.67
2023-03-13T04:43:38.974Z,71.62
2023-03-13T04:46:06.582Z,72.01
2023-03-13T04:48:34.156Z,68.79
2023-03-13T04:51:02.424Z,66.24
2023-03-13T04:53:29.765Z,69.31
2023-03-13T04:55:56.920Z,68.44
2023-03-13T04:58:24.346Z,67.68
2023-03-13T05:00:51.476Z,65.70
2023-03-13T05:03:18.860Z,66.19
2023-03-13T05:05:45.865Z,65.67
2023-03-13T05:08:15.475Z,66.07
2023-03-13T05:10:43.953Z,68.15
2023-03-13T05:13:11.897Z,67.63
2023-03-13T05:15:38.941Z,70.90
2023-03-13T05:18:06.398Z,70.14
2023-03-13T05:20:33.426Z,71.19
2023-03-13T05:23:00.842Z,70.88
2023-03-13T05:25:28.411Z,68.93
2023-03-13T05:27:55.964Z,68.90
2023-03-13T05:30:23.108Z,67.26
2023-03-13T05:32:50.270Z,65.23
2023-03-13T05:35:17.497Z,63.38
2023-03-13T05:37:46.021Z,62.85
2023-03-13T05:40:14.620Z,61.29
2023-03-13T05:42:42.517Z,60.96
2023-03-13T05:45:11.017Z,61.94
2023-03-13T05:47:39.188Z,60.43
2023-03-13T05:50:08.087Z,56.37
2023-03-13T05:52:36.028Z,53.84
2023-03-13T05:55:03.142Z,54.14
2023-03-13T05:57:30.082Z,52.90
2023-03-13T05:59:57.031Z,52.35
2023-03-13T06:02:24.044Z,53.81
2023-03-13T06:04:51.144Z,52.43
2023-03-13T06:07:18.282Z,50.36
2023-03-13T06:09:45.247Z,48.98
2023-03-13T06:12:12.771Z,48.96
2023-03-13T06:14:39.979Z,51.90
2023-03-13T06:17:07.228Z,52.61
2023-03-13T06:19:34.147Z,52.63
2023-03-13T06:22:01.599Z,55.85
2023-03-13T06:24:28.767Z,54.90
2023-03-13T06:26:55.982Z,56.94
2023-03-13T06:29:30.447Z,56.45
2023-03-13T06:31:58.524Z,57.60
2023-03-13T06:34:25.706Z,55.22
2023-03-13T06:36:52.732Z,55.66
2023-03-13T06:39:19.858Z,54.51
2023-03-13T06:41:46.772Z,55.81
2023-03-13T06:44:14.443Z,55.85
2023-03-13T06:46:42.310Z,53.96
2023-03-13T06:49:10.120Z,53.13
2023-03-13T06:51:37.538Z,55.00
2023-03-13T06:54:04.585Z,55.13
2023-03-13T06:56:32.530Z,55.98
2023-03-13T06:59:00.147Z,54.95
2023-03-13T07:01:27.453Z,55.62
2023-03-13T07:03:54.877Z,52.99
2023-03-13T07:06:21.998Z,54.77
2023-03-13T07:08:49.036Z,54.65
2023-03-13T07:11:16.537Z,51.69
2023-03-13T07:13:43.645Z,48.83
2023-03-13T07:16:13.574Z,45.72
2023-03-13T07:18:45.065Z,45.11
2023-03-13T07:21:13.028Z,40.38
2023-03-13T07:23:40.132Z,41.42
2023-03-13T07:26:11.024Z,39.05
2023-03-13T07:28:38.199Z,37.65
2023-03-13T07:31:12.736Z,39.92
2023-03-13T07:33:40.419Z,37.56
2023-03-13T07:36:08.185Z,36.93
2023-03-13T07:38:36.017Z,37.01
2023-03-13T07:41:05.047Z,37.77
2023-03-13T07:43:32.624Z,39.23
2023-03-13T07:46:03.997Z,40.63
2023-03-13T07:48:35.820Z,42.13
2023-03-13T07:51:03.827Z,41.47
2023-03-13T07:53:33.007Z,42.43
2023-03-13T07:56:06.411Z,41.07
2023-03-13T07:58:40.859Z,39.93
2023-03-13T08:01:20.356Z,40.34
2023-03-13T08:03:52.842Z,39.96
2023-03-13T08:06:23.747Z,39.53
2023-03-13T08:08:51.991Z,38.90
2023-03-13T08:11:22.305Z,36.70
2023-03-13T08:13:52.038Z,39.72
2023-03-13T08:16:22.593Z,39.14
2023-03-13T08:18:52.599Z,40.20
2023-03-13T08:21:22.496Z,40.45
2023-03-13T08:23:50.124Z,39.76
2023-03-13T08:26:20.316Z,38.32
2023-03-13T08:28:48.930Z,34.72
2023-03-13T08:31:19.027Z,36.97
2023-03-13T08:33:49.370Z,33.51
2023-03-13T08:36:23.360Z,32.98
2023-03-13T08:38:51.791Z,32.05
2023-03-13T08:41:24.540Z,30.55
2023-03-13T08:43:55.590Z,28.96
2023-03-13T08:46:23.427Z,27.98
2023-03-13T08:48:55.311Z,28.18
2023-03-13T08:51:24.544Z,29.62
2023-03-13T08:53:52.385Z,29.89
2023-03-13T08:56:21.993Z,26.68
2023-03-13T08:58:53.698Z,29.03
2023-03-13T09:01:21.939Z,27.40
2023-03-13T09:03:49.352Z,28.94
2023-03-13T09:06:17.234Z,28.96
2023-03-13T09:08:44.851Z,30.30
2023-03-13T09:11:20.138Z,30.47
2023-03-13T09:13:50.340Z,29.67
2023-03-13T09:16:25.621Z,30.37
2023-03-13T09:18:53.499Z,32.91
2023-03-13T09:21:23.036Z,31.36
2023-03-13T09:23:51.201Z,34.09
2023-03-13T09:26:22.262Z,30.99
2023-03-13T09:28:50.235Z,29.93
2023-03-13T09:31:20.384Z,31.03
2023-03-13T09:33:48.927Z,29.49
2023-03-13T09:36:19.193Z,30.31
2023-03-13T09:38:47.990Z,30.44
2023-03-13T09:41:17.707Z,31.17
2023-03-13T09:43:50.595Z,31.50
2023-03-13T09:46:28.763Z,28.87
2023-03-13T09:49:00.457Z,29.85
2023-03-13T09:51:38.653Z,29.85
2023-03-13T09:54:14.641Z,27.88
2023-03-13T09:56:51.353Z,26.91
2023-03-13T09:59:24.855Z,27.08
2023-03-13T10:01:55.800Z,25.70
2023-03-13T10:04:22.814Z,25.20
2023-03-13T10:06:50.001Z,25.73
2023-03-13T10:09:23.222Z,24.54
2023-03-13T10:12:03.093Z,25.32
2023-03-13T10:14:47.340Z,24.18
2023-03-13T10:17:26.651Z,25.12
2023-03-13T10:20:01.582Z,24.16
2023-03-13T10:22:31.642Z,23.62
2023-03-13T10:25:07.893Z,23.71
2023-03-13T10:27:54.054Z,23.72
2023-03-13T10:30:25.974Z,22.94
2023-03-13T10:33:07.554Z,22.90
2023-03-13T10:35:43.287Z,22.95
2023-03-13T10:38:20.741Z,22.77
2023-03-13T10:41:28.512Z,22.87
2023-03-13T10:44:14.815Z,22.04
2023-03-13T10:46:46.793Z,22.42
2023-03-13T10:49:17.294Z,22.30
2023-03-13T10:51:53.723Z,22.30
2023-03-13T10:54:26.203Z,22.59
2023-03-13T10:57:13.792Z,23.05
2023-03-13T10:59:48.268Z,22.86
2023-03-13T11:02:34.704Z,22.99
2023-03-13T11:05:38.168Z,23.05
2023-03-13T11:08:24.464Z,22.79
2023-03-13T11:11:00.202Z,23.37
2023-03-13T11:13:37.301Z,25.18
2023-03-13T11:16:25.823Z,23.50
2023-03-13T11:19:25.556Z,24.17
2023-03-13T11:22:13.054Z,24.44
2023-03-13T11:24:49.209Z,23.31
2023-03-13T11:27:19.347Z,24.90
2023-03-13T11:30:24.289Z,23.86
2023-03-13T11:33:05.089Z,24.23
2023-03-13T11:36:20.348Z,25.61
2023-03-13T11:38:54.538Z,25.22
2023-03-13T11:41:44.295Z,24.37
2023-03-13T11:44:24.584Z,25.63
2023-03-13T11:46:57.562Z,25.61
2023-03-13T11:49:41.065Z,24.54
2023-03-13T11:52:18.768Z,25.14
2023-03-13T11:54:50.960Z,24.91
2023-03-13T11:57:35.532Z,24.81
2023-03-13T12:00:47.678Z,25.55
2023-03-13T12:03:27.121Z,24.77
2023-03-13T12:05:57.658Z,25.65
2023-03-13T12:08:32.277Z,25.82
2023-03-13T12:11:13.789Z,26.82
2023-03-13T12:14:14.072Z,25.34
2023-03-13T12:16:50.136Z,25.17
2023-03-13T12:19:27.384Z,25.98
2023-03-13T12:22:00.811Z,25.06
2023-03-13T12:24:28.035Z,25.40
2023-03-13T12:27:04.870Z,23.76
2023-03-13T12:29:46.530Z,24.80
2023-03-13T12:32:18.468Z,24.26
2023-03-13T12:35:12.950Z,25.42
2023-03-13T12:37:47.928Z,25.33
2023-03-13T12:40:38.721Z,25.10
2023-03-13T12:43:14.871Z,25.66
2023-03-13T12:46:02.326Z,26.40
2023-03-13T12:49:09.519Z,28.59
2023-03-13T12:52:07.507Z,30.06
2023-03-13T12:55:04.674Z,29.20
2023-03-13T12:57:43.540Z,28.76
2023-03-13T13:00:20.595Z,29.74
2023-03-13T13:02:48.025Z,29.86
2023-03-13T13:05:24.791Z,28.97
2023-03-13T13:07:56.748Z,28.04
2023-03-13T13:10:29.007Z,27.44
2023-03-13T13:13:14.355Z,27.66
2023-03-13T13:16:17.893Z,27.86
2023-03-13T13:18:45.045Z,29.38
2023-03-13T13:21:26.961Z,28.90
2023-03-13T13:23:56.871Z,28.18
2023-03-13T13:26:27.055Z,28.44
2023-03-13T13:28:55.154Z,27.96
2023-03-13T13:31:57.216Z,27.28
2023-03-13T13:34:40.369Z,26.44
2023-03-13T13:37:15.141Z,26.79
2023-03-13T13:39:50.477Z,26.26
2023-03-13T13:42:33.867Z,27.80
2023-03-13T13:45:09.332Z,28.67
2023-03-13T13:47:39.432Z,27.42
2023-03-13T13:50:27.712Z,27.18
2023-03-13T13:53:33.464Z,26.35
2023-03-13T13:56:03.674Z,25.63
2023-03-13T13:58:32.844Z,25.67
2023-03-13T14:01:17.352Z,26.08
2023-03-13T14:03:53.433Z,25.91
2023-03-13T14:06:42.979Z,25.97
2023-03-13T14:09:40.551Z,25.93
2023-03-13T14:12:33.670Z,25.53
2023-03-13T14:15:23.406Z,26.19
2023-03-13T14:17:55.464Z,26.92
2023-03-13T14:20:37.078Z,26.58
2023-03-13T14:23:10.199Z,26.43
2023-03-13T14:25:51.257Z,26.95
2023-03-13T14:28:20.716Z,26.65
2023-03-13T14:30:50.793Z,27.34
2023-03-13T14:33:18.272Z,27.37
2023-03-13T14:35:45.957Z,27.87
2023-03-13T14:38:24.700Z,27.75
2023-03-13T14:40:53.353Z,27.39
2023-03-13T14:43:41.176Z,27.37
2023-03-13T14:46:31.337Z,27.43
2023-03-13T14:49:08.372Z,28.05
2023-03-13T14:51:39.174Z,27.75
2023-03-13T14:54:06.578Z,28.29
2023-03-13T14:56:35.337Z,28.00
2023-03-13T14:59:17.117Z,27.93
2023-03-13T15:01:44.997Z,28.21
2023-03-13T15:04:12.564Z,28.66
2023-03-13T15:06:39.746Z,28.78
2023-03-13T15:09:24.220Z,28.76
2023-03-13T15:12:01.586Z,29.29
2023-03-13T15:14:38.333Z,28.97
2023-03-13T15:17:14.672Z,29.71
2023-03-13T15:19:42.834Z,29.76
2023-03-13T15:22:14.287Z,29.73
2023-03-13T15:24:44.070Z,29.86
2023-03-13T15:27:20.898Z,29.80
2023-03-13T15:29:48.161Z,29.65
2023-03-13T15:32:37.766Z,29.62
2023-03-13T15:35:24.265Z,29.73
2023-03-13T15:37:51.705Z,30.15
2023-03-13T15:40:20.008Z,30.08
2023-03-13T15:42:51.680Z,29.88
2023-03-13T15:45:18.994Z,30.38
2023-03-13T15:47:46.505Z,30.37
2023-03-13T15:50:15.164Z,30.57
2023-03-13T15:52:45.081Z,30.54
2023-03-13T15:55:13.476Z,30.96
2023-03-13T15:57:47.276Z,30.99
2023-03-13T16:00:27.930Z,31.13
2023-03-13T16:02:55.035Z,30.96
2023-03-13T16:05:22.177Z,31.96
2023-03-13T16:07:49.304Z,31.71
2023-03-13T16:10:25.225Z,32.40
2023-03-13T16:12:53.481Z,32.55
2023-03-13T16:15:21.099Z,33.03
2023-03-13T16:17:48.192Z,32.89
2023-03-13T16:20:19.156Z,33.26
2023-03-13T16:22:46.236Z,33.52
2023-03-13T16:25:16.705Z,33.57
2023-03-13T16:27:44.418Z,33.50
2023-03-13T16:30:20.784Z,33.64
2023-03-13T16:32:47.906Z,34.02
2023-03-13T16:35:15.009Z,33.85
2023-03-13T16:37:42.328Z,34.08
2023-03-13T16:40:33.208Z,33.98
2023-03-13T16:43:01.237Z,34.33
2023-03-13T16:45:28.526Z,34.63
2023-03-13T16:47:55.577Z,34.44
2023-03-13T16:50:26.992Z,34.40
2023-03-13T16:52:55.010Z,34.72
2023-03-13T16:55:28.289Z,34.77
2023-03-13T16:58:01.262Z,34.70
2023-03-13T17:00:30.936Z,35.94
2023-03-13T17:02:58.402Z,35.71
2023-03-13T17:05:27.192Z,36.61
2023-03-13T17:07:54.411Z,36.77
2023-03-13T17:10:25.031Z,36.58
2023-03-13T17:12:52.252Z,37.47
2023-03-13T17:15:20.593Z,37.92
2023-03-13T17:17:52.237Z,37.68
2023-03-13T17:20:24.683Z,38.86
2023-03-13T17:22:51.752Z,39.24
2023-03-13T17:25:19.411Z,39.62
2023-03-13T17:27:49.512Z,39.27
2023-03-13T17:30:16.515Z,39.15
2023-03-13T17:32:43.685Z,39.76
2023-03-13T17:35:10.744Z,39.20
2023-03-13T17:37:39.795Z,38.79
2023-03-13T17:40:16.498Z,39.46
2023-03-13T17:42:43.795Z,39.20
2023-03-13T17:45:11.441Z,39.81
2023-03-13T17:47:39.002Z,39.52
2023-03-13T17:50:24.556Z,40.08
2023-03-13T17:52:51.617Z,39.66
2023-03-13T17:55:19.237Z,40.41
2023-03-13T17:57:48.080Z,41.55
2023-03-13T18:00:30.396Z,40.86
2023-03-13T18:02:57.758Z,41.16
2023-03-13T18:05:25.852Z,40.31
2023-03-13T18:07:56.271Z,40.66
2023-03-13T18:10:29.156Z,40.37
2023-03-13T18:12:57.143Z,41.01
2023-03-13T18:15:26.430Z,41.12
2023-03-13T18:17:53.951Z,40.28
2023-03-13T18:20:25.833Z,39.81
2023-03-13T18:22:54.288Z,41.30
2023-03-13T18:25:24.103Z,40.72
2023-03-13T18:27:51.090Z,39.50
2023-03-13T18:30:21.962Z,39.26
2023-03-13T18:32:49.568Z,39.75
2023-03-13T18:35:17.593Z,39.75
2023-03-13T18:37:46.751Z,39.21
2023-03-13T18:40:18.593Z,39.16
2023-03-13T18:42:46.026Z,39.53
2023-03-13T18:45:18.431Z,39.55
2023-03-13T18:47:46.042Z,39.70
2023-03-13T18:50:27.517Z,40.75
2023-03-13T18:52:56.459Z,41.68
2023-03-13T18:55:30.342Z,40.98
2023-03-13T18:57:57.961Z,41.96
2023-03-13T19:00:31.017Z,41.60
2023-03-13T19:02:58.273Z,42.20
2023-03-13T19:05:25.354Z,42.59
2023-03-13T19:07:52.349Z,42.48
2023-03-13T19:10:31.429Z,42.14
2023-03-13T19:12:58.527Z,42.06
2023-03-13T19:15:29.198Z,42.50
2023-03-13T19:17:59.939Z,43.10
2023-03-13T19:20:28.072Z,42.51
2023-03-13T19:22:58.164Z,42.35
2023-03-13T19:25:25.269Z,42.92
2023-03-13T19:27:52.186Z,43.76
2023-03-13T19:30:25.484Z,43.66
2023-03-13T19:32:52.907Z,43.28
2023-03-13T19:35:22.380Z,42.80
2023-03-13T19:37:49.962Z,42.84
2023-03-13T19:40:26.841Z,43.38
2023-03-13T19:42:53.812Z,43.85
2023-03-13T19:45:22.297Z,44.14
2023-03-13T19:47:49.435Z,44.33
2023-03-13T19:50:19.255Z,44.61
2023-03-13T19:52:46.467Z,46.75
2023-03-13T19:55:13.931Z,46.42
2023-03-13T19:57:41.285Z,46.01
2023-03-13T20:00:14.217Z,46.15
2023-03-13T20:02:41.884Z,46.48
2023-03-13T20:05:10.403Z,47.35
2023-03-13T20:07:37.781Z,47.17
2023-03-13T20:10:05.640Z,46.84
2023-03-13T20:12:34.274Z,47.65
2023-03-13T20:15:01.312Z,48.45
2023-03-13T20:17:28.293Z,47.66
2023-03-13T20:19:55.569Z,48.32
2023-03-13T20:22:22.539Z,48.66
2023-03-13T20:24:49.542Z,48.35
2023-03-13T20:27:16.432Z,47.91
2023-03-13T20:29:43.473Z,49.08
2023-03-13T20:32:11.520Z,48.65
2023-03-13T20:34:38.448Z,47.86
2023-03-13T20:37:05.698Z,48.60
2023-03-13T20:39:34.395Z,48.28
2023-03-13T20:42:03.241Z,47.56
2023-03-13T20:44:30.355Z,48.20
2023-03-13T20:46:57.236Z,49.19
2023-03-13T20:49:24.283Z,49.00
2023-03-13T20:51:51.147Z,49.34
2023-03-13T20:54:18.033Z,48.31
2023-03-13T20:56:44.872Z,47.96
2023-03-13T20:59:11.746Z,48.87
2023-03-13T21:01:38.665Z,48.65
2023-03-13T21:04:05.646Z,48.51
2023-03-13T21:06:32.763Z,49.37
2023-03-13T21:08:59.855Z,48.39
2023-03-13T21:11:26.723Z,47.82
2023-03-13T21:13:53.650Z,47.55
2023-03-13T21:16:20.548Z,47.14
2023-03-13T21:18:47.836Z,47.64
2023-03-13T21:21:17.548Z,47.12
2023-03-13T21:23:45.566Z,47.04
2023-03-13T21:26:13.661Z,47.63
2023-03-13T21:28:41.209Z,47.19
2023-03-13T21:31:13.567Z,46.97
2023-03-13T21:33:43.331Z,47.67
2023-03-13T21:36:11.624Z,47.42
2023-03-13T21:38:38.792Z,47.69
2023-03-13T21:41:10.789Z,47.35
2023-03-13T21:43:40.632Z,47.64
2023-03-13T21:46:08.615Z,47.93
2023-03-13T21:48:35.530Z,47.77
2023-03-13T21:51:02.396Z,47.64
2023-03-13T21:53:29.303Z,47.96
2023-03-13T21:55:56.187Z,48.53
2023-03-13T21:58:23.061Z,48.40
2023-03-13T22:00:54.884Z,48.69
2023-03-13T22:03:22.584Z,50.10
2023-03-13T22:05:49.628Z,50.28
2023-03-13T22:08:16.544Z,49.68
2023-03-13T22:10:51.909Z,50.33
2023-03-13T22:13:19.042Z,50.21
2023-03-13T22:15:46.808Z,50.00
2023-03-13T22:18:17.288Z,49.59
2023-03-13T22:20:44.789Z,49.70
2023-03-13T22:23:12.428Z,49.62
2023-03-13T22:25:40.895Z,50.04
2023-03-13T22:28:07.895Z,49.43
2023-03-13T22:30:35.511Z,49.67
2023-03-13T22:33:04.006Z,49.56
2023-03-13T22:35:30.950Z,49.06
2023-03-13T22:37:58.108Z,49.52
2023-03-13T22:40:25.192Z,49.90
2023-03-13T22:42:52.070Z,49.43
2023-03-13T22:45:19.522Z,49.07
2023-03-13T22:47:46.459Z,49.68
2023-03-13T22:50:13.839Z,50.21
2023-03-13T22:52:41.095Z,49.84
2023-03-13T22:55:08.425Z,49.59
2023-03-13T22:57:35.441Z,48.80
2023-03-13T23:00:02.356Z,48.93
2023-03-13T23:02:29.395Z,48.27
2023-03-13T23:04:58.690Z,48.68
2023-03-13T23:07:28.608Z,48.90
2023-03-13T23:09:56.190Z,48.52
2023-03-13T23:12:24.533Z,49.03
2023-03-13T23:14:52.509Z,49.38
2023-03-13T23:17:19.391Z,49.32
2023-03-13T23:19:46.453Z,48.88
2023-03-13T23:22:17.994Z,49.12
2023-03-13T23:24:45.199Z,49.03
2023-03-13T23:27:12.299Z,49.76
2023-03-13T23:29:39.369Z,49.58
2023-03-13T23:32:06.919Z,49.91
2023-03-13T23:34:35.824Z,48.97
2023-03-13T23:37:03.209Z,49.23
2023-03-13T23:39:30.266Z,49.80
2023-03-13T23:41:57.161Z,49.80
2023-03-13T23:44:24.049Z,49.58
2023-03-13T23:46:50.973Z,49.76
2023-03-13T23:49:17.811Z,49.83
2023-03-13T23:51:44.662Z,49.85
2023-03-13T23:54:11.563Z,50.19
2023-03-13T23:56:38.466Z,50.28
2023-03-13T23:59:05.449Z,50.31
